KOVE/OVE METAR and TAF weather

Enter ICAO airport designator
Station Type Date Time Source
KOVE METAR 2019/02/20 06:53 UTC NOAA

KOVE 200653Z AUTO 09005KT 10SM FEW120 07/M02 A3008 RMK AO2 SLP187 T00721022 TSNO


Station Type Date Time Source
KOVE Decoded METAR 2019/02/20 06:53 UTC NOAA

OROVILLE MUNICIPAL AIRPORT, CA, United States (KOVE) 39-30N 121-37W 58M
Feb 20, 2019 - 01:53 AM EST / 2019.02.20 0653 UTC
Wind: from the E (090 degrees) at 6 MPH (5 KT):0
Visibility: 10 mile(s):0
Sky conditions: mostly clear
Temperature: 45.0 F (7.2 C)
Dew Point: 28.0 F (-2.2 C)
Relative Humidity: 51%
Pressure (altimeter): 30.08 in. Hg (1018 hPa)
ob: KOVE 200653Z AUTO 09005KT 10SM FEW120 07/M02 A3008 RMK AO2 SLP187 T00721022 TSNO
cycle: 7

Station Type Date Time Source
KOVE TAF UTC NOAA

Error!


Example: see airport list